Wilson Norfolk — 9HA2466 — position and weather

sailwx.info

Track history (hours):
 
Tides and Currents Weather Stations Pressure Air Temp Water Temp Dewpoint Dewpoint Depression Visibility Wind Speed Wind Dir Waves Ship Positions

Wilson Norfolk

Last reported at 2016-May-05 15:31 UTC. Time now 2016-May-05 16:15 UTC.
Position N 53°24' E 014°36'.

Length 123 m; draft 7.4 m.

Type: Ship. MMSI: 248678000.

Date/timePositionNaut miles runAvg speedWind from/ knotsBaromVisibWave heightAir tempDewpointWater temp
2016-May-05 15:31N 53°24' E 014°36'0 0.0
2016-May-05 14:31N 53°24' E 014°36'0 0.0
2016-May-05 13:28N 53°24' E 014°36'0 0.0
2016-May-05 12:31N 53°24' E 014°36'0 0.0
2016-May-05 11:31N 53°24' E 014°36'4 4.4
2016-May-05 10:33N 53°28' E 014°36'8 7.9
2016-May-05 09:33N 53°36' E 014°35'10 9.8
2016-May-05 08:33N 53°44' E 014°26'9 9.1
2016-May-05 07:33N 53°52' E 014°17'8 8.0
2016-May-05 06:33N 53°60' E 014°15'2 2.3
2016-May-05 05:32N 54°02' E 014°17'0 0.0
2016-May-05 04:32N 54°02' E 014°17'0 0.0
2016-May-05 03:32N 54°02' E 014°17'0 0.0
2016-May-05 02:32N 54°02' E 014°17'0 0.0
2016-May-05 01:32N 54°02' E 014°17'1 1.1
2016-May-05 00:33N 54°02' E 014°15'1110.6
2016-May-04 23:33N 54°12' E 014°08'1110.7
2016-May-04 22:32N 54°21' E 013°57'1111.1
2016-May-04 21:33N 54°30' E 013°47'1111.3
2016-May-04 20:33N 54°40' E 013°36'1211.3
2016-May-04 19:31N 54°43' E 013°17'2311.3
2016-May-04 17:30N 54°38' E 012°39'1111.1
2016-May-04 16:33N 54°33' E 012°23'1110.8
2016-May-04 15:33N 54°25' E 012°10'1211.6
2016-May-04 14:33N 54°24' E 011°50'1211.7
2016-May-04 13:33N 54°29' E 011°31'1211.7
2016-May-04 12:33N 54°34' E 011°13'1211.6
2016-May-04 11:33N 54°40' E 010°56'1111.3
2016-May-04 10:33N 54°51' E 010°52'1211.8
2016-May-04 09:33N 55°02' E 011°01'1111.4
2016-May-04 08:33N 55°13' E 011°06'4610.4
2016-May-04 04:09N 55°59' E 011°01'911.2
2016-May-04 03:21N 56°06' E 011°09'2111.0
2016-May-04 01:25N 56°24' E 011°30'1011.2
2016-May-04 00:33N 56°33' E 011°39'1110.7
2016-May-03 23:33N 56°42' E 011°48'1010.3
2016-May-03 22:33N 56°52' E 011°47'1110.9
2016-May-03 21:33N 57°03' E 011°41'1010.3
2016-May-03 20:33N 57°12' E 011°34'1110.6
2016-May-03 19:33N 57°22' E 011°28'1010.4
2016-May-03 18:33N 57°31' E 011°17'1110.9
2016-May-03 17:33N 57°38' E 011°02'1111.3
2016-May-03 16:33N 57°46' E 010°47'11012.1
2016-May-03 07:27N 57°42' E 007°21'910.6
2016-May-03 06:34N 57°43' E 007°03'1010.4
2016-May-03 05:33N 57°43' E 006°44'9 9.2
2016-May-03 04:33N 57°46' E 006°28'1010.1
2016-May-03 03:33N 57°53' E 006°14'10 9.7
2016-May-03 02:33N 57°59' E 005°59'9 9.2
2016-May-03 01:32N 58°05' E 005°46'9 9.3
2016-May-03 00:33N 58°11' E 005°33'9 9.2
2016-May-02 23:33N 58°17' E 005°20'10 9.4
2016-May-02 22:28N 58°24' E 005°06'9 9.8
2016-May-02 21:33N 58°30' E 004°54'10 9.7
2016-May-02 20:33N 58°38' E 004°42'10 9.1
2016-May-02 19:29N 58°45' E 004°29'  
2016-Apr-29 21:30N 63°29' E 008°60'1111.9
2016-Apr-29 20:33N 63°34' E 009°22'1211.7
2016-Apr-29 19:33N 63°38' E 009°46'1414.0
2016-Apr-29 18:34N 63°26' E 009°60'7 7.1
2016-Apr-29 17:33N 63°19' E 009°53'0 0.0
2016-Apr-29 16:33N 63°19' E 009°53'0 0.0
2016-Apr-29 15:33N 63°19' E 009°53'0 0.0
2016-Apr-29 14:33N 63°19' E 009°53'0 0.0
2016-Apr-29 13:33N 63°19' E 009°53'0 0.0
2016-Apr-29 12:33N 63°19' E 009°53'0 0.0
2016-Apr-29 11:33N 63°19' E 009°53'0 0.0
2016-Apr-29 10:33N 63°19' E 009°53'0 0.0
2016-Apr-29 09:33N 63°19' E 009°53'0 0.0
2016-Apr-29 08:33N 63°19' E 009°53'0 0.0
2016-Apr-29 07:33N 63°19' E 009°53'0 0.0
2016-Apr-29 06:33N 63°19' E 009°53'0 0.0
2016-Apr-29 05:33N 63°19' E 009°53'0 0.0
2016-Apr-29 04:33N 63°19' E 009°53'0 0.0
2016-Apr-29 03:33N 63°19' E 009°53'0 0.0
2016-Apr-29 02:33N 63°19' E 009°53'0 0.0
2016-Apr-29 01:33N 63°19' E 009°53'0 0.0
2016-Apr-29 00:33N 63°19' E 009°53'0 0.0
2016-Apr-28 23:33N 63°19' E 009°53'0 0.0
2016-Apr-28 22:33N 63°19' E 009°53'0 0.0
2016-Apr-28 21:33N 63°19' E 009°53'0 0.0
2016-Apr-28 20:30N 63°19' E 009°53'0 0.0
2016-Apr-28 19:33N 63°19' E 009°53'0 0.0
2016-Apr-28 18:33N 63°19' E 009°53'0 0.0
2016-Apr-28 17:33N 63°19' E 009°53'0 0.0
2016-Apr-28 16:27N 63°19' E 009°53'0 0.0
2016-Apr-28 15:33N 63°19' E 009°53'0 0.0
2016-Apr-28 14:33N 63°19' E 009°53'7 6.7
2016-Apr-28 13:33N 63°25' E 009°60'1010.4
2016-Apr-28 12:33N 63°35' E 009°50'7 7.3
2016-Apr-28 11:33N 63°38' E 009°35'1110.9
2016-Apr-28 10:33N 63°32' E 009°14'8 8.3
2016-Apr-28 09:33N 63°24' E 009°11'5 0.4
2016-Apr-27 21:32N 63°19' E 009°09'0 0.0
2016-Apr-27 20:32N 63°19' E 009°09'0 0.0
2016-Apr-27 16:11N 63°19' E 009°09'0 0.0
2016-Apr-27 15:23N 63°19' E 009°09'0 0.0
2016-Apr-27 14:23N 63°19' E 009°09'0 0.0
2016-Apr-27 13:11N 63°19' E 009°09'0 0.0
2016-Apr-27 12:23N 63°19' E 009°09'0 0.0
2016-Apr-27 11:29N 63°19' E 009°09'0 0.0
2016-Apr-27 10:29N 63°19' E 009°09'0 0.0
2016-Apr-27 09:32N 63°19' E 009°09'0 0.0
2016-Apr-27 08:20N 63°19' E 009°09'0 0.0
2016-Apr-27 07:32N 63°19' E 009°09'0 0.0
2016-Apr-27 06:26N 63°19' E 009°09'0 0.0
2016-Apr-27 04:26N 63°19' E 009°09'0 0.0
2016-Apr-27 03:26N 63°19' E 009°09'0 0.0
2016-Apr-27 02:26N 63°19' E 009°09'0 0.0
2016-Apr-27 01:26N 63°19' E 009°09'0 0.0
2016-Apr-27 00:14N 63°19' E 009°09'0 0.0
2016-Apr-26 23:26N 63°19' E 009°09'0 0.0
2016-Apr-26 22:26N 63°19' E 009°09'0 0.0
2016-Apr-26 21:32N 63°19' E 009°09'0 0.3
2016-Apr-26 20:33N 63°19' E 009°09'9 9.2
2016-Apr-26 19:32N 63°28' E 009°03'  
Track history (hours):
 
Tides and Currents Weather Stations Pressure Air Temp Water Temp Dewpoint Dewpoint Depression Visibility Wind Speed Wind Dir Waves Ship Positions

Wilson Norfolk

Last reported at 2016-May-05 15:31 UTC. Time now 2016-May-05 16:15 UTC.
Position N 53°24' E 014°36'.

Length 123 m; draft 7.4 m.

Type: Ship. MMSI: 248678000.

Date/timePositionNaut miles runAvg speedWind from/ knotsBaromVisibWave heightAir tempDewpointWater temp
2016-May-05 15:31N 53°24' E 014°36'0 0.0
2016-May-05 14:31N 53°24' E 014°36'0 0.0
2016-May-05 13:28N 53°24' E 014°36'0 0.0
2016-May-05 12:31N 53°24' E 014°36'0 0.0
2016-May-05 11:31N 53°24' E 014°36'4 4.4
2016-May-05 10:33N 53°28' E 014°36'8 7.9
2016-May-05 09:33N 53°36' E 014°35'10 9.8
2016-May-05 08:33N 53°44' E 014°26'9 9.1
2016-May-05 07:33N 53°52' E 014°17'8 8.0
2016-May-05 06:33N 53°60' E 014°15'2 2.3
2016-May-05 05:32N 54°02' E 014°17'0 0.0
2016-May-05 04:32N 54°02' E 014°17'0 0.0
2016-May-05 03:32N 54°02' E 014°17'0 0.0
2016-May-05 02:32N 54°02' E 014°17'0 0.0
2016-May-05 01:32N 54°02' E 014°17'1 1.1
2016-May-05 00:33N 54°02' E 014°15'1110.6
2016-May-04 23:33N 54°12' E 014°08'1110.7
2016-May-04 22:32N 54°21' E 013°57'1111.1
2016-May-04 21:33N 54°30' E 013°47'1111.3
2016-May-04 20:33N 54°40' E 013°36'1211.3
2016-May-04 19:31N 54°43' E 013°17'2311.3
2016-May-04 17:30N 54°38' E 012°39'1111.1
2016-May-04 16:33N 54°33' E 012°23'1110.8
2016-May-04 15:33N 54°25' E 012°10'1211.6
2016-May-04 14:33N 54°24' E 011°50'1211.7
2016-May-04 13:33N 54°29' E 011°31'1211.7
2016-May-04 12:33N 54°34' E 011°13'1211.6
2016-May-04 11:33N 54°40' E 010°56'1111.3
2016-May-04 10:33N 54°51' E 010°52'1211.8
2016-May-04 09:33N 55°02' E 011°01'1111.4
2016-May-04 08:33N 55°13' E 011°06'4610.4
2016-May-04 04:09N 55°59' E 011°01'911.2
2016-May-04 03:21N 56°06' E 011°09'2111.0
2016-May-04 01:25N 56°24' E 011°30'1011.2
2016-May-04 00:33N 56°33' E 011°39'1110.7
2016-May-03 23:33N 56°42' E 011°48'1010.3
2016-May-03 22:33N 56°52' E 011°47'1110.9
2016-May-03 21:33N 57°03' E 011°41'1010.3
2016-May-03 20:33N 57°12' E 011°34'1110.6
2016-May-03 19:33N 57°22' E 011°28'1010.4
2016-May-03 18:33N 57°31' E 011°17'1110.9
2016-May-03 17:33N 57°38' E 011°02'1111.3
2016-May-03 16:33N 57°46' E 010°47'11012.1
2016-May-03 07:27N 57°42' E 007°21'910.6
2016-May-03 06:34N 57°43' E 007°03'1010.4
2016-May-03 05:33N 57°43' E 006°44'9 9.2
2016-May-03 04:33N 57°46' E 006°28'1010.1
2016-May-03 03:33N 57°53' E 006°14'10 9.7
2016-May-03 02:33N 57°59' E 005°59'9 9.2
2016-May-03 01:32N 58°05' E 005°46'9 9.3
2016-May-03 00:33N 58°11' E 005°33'9 9.2
2016-May-02 23:33N 58°17' E 005°20'10 9.4
2016-May-02 22:28N 58°24' E 005°06'9 9.8
2016-May-02 21:33N 58°30' E 004°54'10 9.7
2016-May-02 20:33N 58°38' E 004°42'10 9.1
2016-May-02 19:29N 58°45' E 004°29'  
2016-Apr-29 21:30N 63°29' E 008°60'1111.9
2016-Apr-29 20:33N 63°34' E 009°22'1211.7
2016-Apr-29 19:33N 63°38' E 009°46'1414.0
2016-Apr-29 18:34N 63°26' E 009°60'7 7.1
2016-Apr-29 17:33N 63°19' E 009°53'0 0.0
2016-Apr-29 16:33N 63°19' E 009°53'0 0.0
2016-Apr-29 15:33N 63°19' E 009°53'0 0.0
2016-Apr-29 14:33N 63°19' E 009°53'0 0.0
2016-Apr-29 13:33N 63°19' E 009°53'0 0.0
2016-Apr-29 12:33N 63°19' E 009°53'0 0.0
2016-Apr-29 11:33N 63°19' E 009°53'0 0.0
2016-Apr-29 10:33N 63°19' E 009°53'0 0.0
2016-Apr-29 09:33N 63°19' E 009°53'0 0.0
2016-Apr-29 08:33N 63°19' E 009°53'0 0.0
2016-Apr-29 07:33N 63°19' E 009°53'0 0.0
2016-Apr-29 06:33N 63°19' E 009°53'0 0.0
2016-Apr-29 05:33N 63°19' E 009°53'0 0.0
2016-Apr-29 04:33N 63°19' E 009°53'0 0.0
2016-Apr-29 03:33N 63°19' E 009°53'0 0.0
2016-Apr-29 02:33N 63°19' E 009°53'0 0.0
2016-Apr-29 01:33N 63°19' E 009°53'0 0.0
2016-Apr-29 00:33N 63°19' E 009°53'0 0.0
2016-Apr-28 23:33N 63°19' E 009°53'0 0.0
2016-Apr-28 22:33N 63°19' E 009°53'0 0.0
2016-Apr-28 21:33N 63°19' E 009°53'0 0.0
2016-Apr-28 20:30N 63°19' E 009°53'0 0.0
2016-Apr-28 19:33N 63°19' E 009°53'0 0.0
2016-Apr-28 18:33N 63°19' E 009°53'0 0.0
2016-Apr-28 17:33N 63°19' E 009°53'0 0.0
2016-Apr-28 16:27N 63°19' E 009°53'0 0.0
2016-Apr-28 15:33N 63°19' E 009°53'0 0.0
2016-Apr-28 14:33N 63°19' E 009°53'7 6.7
2016-Apr-28 13:33N 63°25' E 009°60'1010.4
2016-Apr-28 12:33N 63°35' E 009°50'7 7.3
2016-Apr-28 11:33N 63°38' E 009°35'1110.9
2016-Apr-28 10:33N 63°32' E 009°14'8 8.3
2016-Apr-28 09:33N 63°24' E 009°11'5 0.4
2016-Apr-27 21:32N 63°19' E 009°09'0 0.0
2016-Apr-27 20:32N 63°19' E 009°09'0 0.0
2016-Apr-27 16:11N 63°19' E 009°09'0 0.0
2016-Apr-27 15:23N 63°19' E 009°09'0 0.0
2016-Apr-27 14:23N 63°19' E 009°09'0 0.0
2016-Apr-27 13:11N 63°19' E 009°09'0 0.0
2016-Apr-27 12:23N 63°19' E 009°09'0 0.0
2016-Apr-27 11:29N 63°19' E 009°09'0 0.0
2016-Apr-27 10:29N 63°19' E 009°09'0 0.0
2016-Apr-27 09:32N 63°19' E 009°09'0 0.0
2016-Apr-27 08:20N 63°19' E 009°09'0 0.0
2016-Apr-27 07:32N 63°19' E 009°09'0 0.0
2016-Apr-27 06:26N 63°19' E 009°09'0 0.0
2016-Apr-27 04:26N 63°19' E 009°09'0 0.0
2016-Apr-27 03:26N 63°19' E 009°09'0 0.0
2016-Apr-27 02:26N 63°19' E 009°09'0 0.0
2016-Apr-27 01:26N 63°19' E 009°09'0 0.0
2016-Apr-27 00:14N 63°19' E 009°09'0 0.0
2016-Apr-26 23:26N 63°19' E 009°09'0 0.0
2016-Apr-26 22:26N 63°19' E 009°09'0 0.0
2016-Apr-26 21:32N 63°19' E 009°09'0 0.3
2016-Apr-26 20:33N 63°19' E 009°09'9 9.2
2016-Apr-26 19:32N 63°28' E 009°03'  

Dump ship's entire track history